sensor_id;sensor_type;location;lat;lon;timestamp;temperature;humidity
74178;DHT22;62540;48.456;-4.456;2023-09-19T00:00:43;18.46;74.15
74178;DHT22;62540;48.456;-4.456;2023-09-19T00:03:10;18.48;74.21
74178;DHT22;62540;48.456;-4.456;2023-09-19T00:05:37;18.43;74.33
74178;DHT22;62540;48.456;-4.456;2023-09-19T00:08:09;18.43;74.29
74178;DHT22;62540;48.456;-4.456;2023-09-19T00:10:35;18.33;75.42
74178;DHT22;62540;48.456;-4.456;2023-09-19T00:13:02;18.33;74.59
74178;DHT22;62540;48.456;-4.456;2023-09-19T00:15:31;18.34;74.57
74178;DHT22;62540;48.456;-4.456;2023-09-19T00:18:00;18.37;74.83
74178;DHT22;62540;48.456;-4.456;2023-09-19T00:20:26;18.38;74.75
74178;DHT22;62540;48.456;-4.456;2023-09-19T00:22:52;18.41;74.61
74178;DHT22;62540;48.456;-4.456;2023-09-19T00:25:19;18.50;74.37
74178;DHT22;62540;48.456;-4.456;2023-09-19T00:27:45;18.56;74.46
74178;DHT22;62540;48.456;-4.456;2023-09-19T00:30:13;18.56;74.56
74178;DHT22;62540;48.456;-4.456;2023-09-19T00:32:42;18.57;74.52
74178;DHT22;62540;48.456;-4.456;2023-09-19T00:35:08;18.58;74.46
74178;DHT22;62540;48.456;-4.456;2023-09-19T00:37:36;18.56;74.39
74178;DHT22;62540;48.456;-4.456;2023-09-19T00:40:03;18.61;74.57
74178;DHT22;62540;48.456;-4.456;2023-09-19T00:42:31;18.58;74.57
74178;DHT22;62540;48.456;-4.456;2023-09-19T00:44:56;18.60;74.61
74178;DHT22;62540;48.456;-4.456;2023-09-19T00:47:22;18.60;74.44
74178;DHT22;62540;48.456;-4.456;2023-09-19T00:49:47;18.58;74.49
74178;DHT22;62540;48.456;-4.456;2023-09-19T00:52:18;18.57;74.64
74178;DHT22;62540;48.456;-4.456;2023-09-19T00:54:46;18.57;74.42
74178;DHT22;62540;48.456;-4.456;2023-09-19T00:57:12;18.53;74.53
74178;DHT22;62540;48.456;-4.456;2023-09-19T00:59:37;18.51;74.41
74178;DHT22;62540;48.456;-4.456;2023-09-19T01:02:03;18.53;74.23
74178;DHT22;62540;48.456;-4.456;2023-09-19T01:04:29;18.57;74.14
74178;DHT22;62540;48.456;-4.456;2023-09-19T01:06:56;18.50;74.18
74178;DHT22;62540;48.456;-4.456;2023-09-19T01:09:23;18.46;74.08
74178;DHT22;62540;48.456;-4.456;2023-09-19T01:11:50;18.34;74.18
74178;DHT22;62540;48.456;-4.456;2023-09-19T01:17:09;18.20;74.30
74178;DHT22;62540;48.456;-4.456;2023-09-19T01:30:27;17.98;74.65
74178;DHT22;62540;48.456;-4.456;2023-09-19T01:32:55;17.93;74.76
74178;DHT22;62540;48.456;-4.456;2023-09-19T01:35:20;17.92;74.78
74178;DHT22;62540;48.456;-4.456;2023-09-19T01:37:45;17.90;74.84
74178;DHT22;62540;48.456;-4.456;2023-09-19T01:40:15;17.96;74.87
74178;DHT22;62540;48.456;-4.456;2023-09-19T01:45:51;18.09;74.56
74178;DHT22;62540;48.456;-4.456;2023-09-19T01:48:57;18.12;74.87
74178;DHT22;62540;48.456;-4.456;2023-09-19T01:54:26;18.10;74.80
74178;DHT22;62540;48.456;-4.456;2023-09-19T01:57:20;18.12;75.00
74178;DHT22;62540;48.456;-4.456;2023-09-19T02:00:13;18.09;75.44
74178;DHT22;62540;48.456;-4.456;2023-09-19T02:02:42;18.06;75.31
74178;DHT22;62540;48.456;-4.456;2023-09-19T02:05:09;18.06;75.52
74178;DHT22;62540;48.456;-4.456;2023-09-19T02:07:35;18.05;75.72
74178;DHT22;62540;48.456;-4.456;2023-09-19T02:10:04;18.05;75.79
74178;DHT22;62540;48.456;-4.456;2023-09-19T02:12:31;18.00;75.99
74178;DHT22;62540;48.456;-4.456;2023-09-19T02:14:58;18.06;76.02
74178;DHT22;62540;48.456;-4.456;2023-09-19T02:17:27;18.03;76.15
74178;DHT22;62540;48.456;-4.456;2023-09-19T02:19:55;18.02;76.17
74178;DHT22;62540;48.456;-4.456;2023-09-19T02:22:21;17.96;77.60
74178;DHT22;62540;48.456;-4.456;2023-09-19T02:24:48;17.88;77.94
74178;DHT22;62540;48.456;-4.456;2023-09-19T02:27:13;17.86;77.74
74178;DHT22;62540;48.456;-4.456;2023-09-19T02:29:41;17.82;78.25
74178;DHT22;62540;48.456;-4.456;2023-09-19T02:32:06;17.89;77.54
74178;DHT22;62540;48.456;-4.456;2023-09-19T02:34:32;17.93;77.35
74178;DHT22;62540;48.456;-4.456;2023-09-19T02:36:57;17.92;77.90
74178;DHT22;62540;48.456;-4.456;2023-09-19T02:39:23;17.93;77.16
74178;DHT22;62540;48.456;-4.456;2023-09-19T02:41:49;17.92;77.06
74178;DHT22;62540;48.456;-4.456;2023-09-19T02:44:14;17.93;77.02
74178;DHT22;62540;48.456;-4.456;2023-09-19T02:46:40;17.92;76.89
74178;DHT22;62540;48.456;-4.456;2023-09-19T02:49:05;17.92;76.76
74178;DHT22;62540;48.456;-4.456;2023-09-19T02:51:32;17.88;76.77
74178;DHT22;62540;48.456;-4.456;2023-09-19T02:54:01;17.89;76.51
74178;DHT22;62540;48.456;-4.456;2023-09-19T02:56:28;17.92;76.40
74178;DHT22;62540;48.456;-4.456;2023-09-19T02:58:55;17.90;76.28
74178;DHT22;62540;48.456;-4.456;2023-09-19T03:01:20;17.88;76.68
74178;DHT22;62540;48.456;-4.456;2023-09-19T03:03:46;17.83;76.88
74178;DHT22;62540;48.456;-4.456;2023-09-19T03:06:12;17.81;76.83
74178;DHT22;62540;48.456;-4.456;2023-09-19T03:08:38;17.86;76.40
74178;DHT22;62540;48.456;-4.456;2023-09-19T03:11:05;17.93;76.38
74178;DHT22;62540;48.456;-4.456;2023-09-19T03:13:36;17.98;76.23
74178;DHT22;62540;48.456;-4.456;2023-09-19T03:16:04;17.99;76.20
74178;DHT22;62540;48.456;-4.456;2023-09-19T03:18:34;18.03;76.14
74178;DHT22;62540;48.456;-4.456;2023-09-19T03:20:59;18.05;76.58
74178;DHT22;62540;48.456;-4.456;2023-09-19T03:23:25;18.07;76.17
74178;DHT22;62540;48.456;-4.456;2023-09-19T03:25:52;18.12;76.28
74178;DHT22;62540;48.456;-4.456;2023-09-19T03:28:17;18.13;76.25
74178;DHT22;62540;48.456;-4.456;2023-09-19T03:30:44;18.17;76.15
74178;DHT22;62540;48.456;-4.456;2023-09-19T03:33:09;18.19;76.29
74178;DHT22;62540;48.456;-4.456;2023-09-19T03:35:37;18.23;76.33
74178;DHT22;62540;48.456;-4.456;2023-09-19T03:38:03;18.25;76.30
74178;DHT22;62540;48.456;-4.456;2023-09-19T03:40:29;18.25;76.47
74178;DHT22;62540;48.456;-4.456;2023-09-19T03:42:55;18.25;76.74
74178;DHT22;62540;48.456;-4.456;2023-09-19T03:45:20;18.22;76.90
74178;DHT22;62540;48.456;-4.456;2023-09-19T03:47:45;18.23;76.64
74178;DHT22;62540;48.456;-4.456;2023-09-19T03:50:14;18.32;76.70
74178;DHT22;62540;48.456;-4.456;2023-09-19T03:52:45;18.29;77.28
74178;DHT22;62540;48.456;-4.456;2023-09-19T03:55:11;18.20;77.39
74178;DHT22;62540;48.456;-4.456;2023-09-19T03:57:37;18.20;77.31
74178;DHT22;62540;48.456;-4.456;2023-09-19T04:00:04;18.25;77.34
74178;DHT22;62540;48.456;-4.456;2023-09-19T04:02:38;18.27;77.13
74178;DHT22;62540;48.456;-4.456;2023-09-19T04:05:04;18.30;77.34
74178;DHT22;62540;48.456;-4.456;2023-09-19T04:07:30;18.27;77.54
74178;DHT22;62540;48.456;-4.456;2023-09-19T04:09:56;18.19;77.89
74178;DHT22;62540;48.456;-4.456;2023-09-19T04:12:21;18.23;78.01
74178;DHT22;62540;48.456;-4.456;2023-09-19T04:14:47;18.25;77.91
74178;DHT22;62540;48.456;-4.456;2023-09-19T04:17:12;18.19;78.35
74178;DHT22;62540;48.456;-4.456;2023-09-19T04:19:38;18.26;77.95
74178;DHT22;62540;48.456;-4.456;2023-09-19T04:22:03;18.29;78.06
74178;DHT22;62540;48.456;-4.456;2023-09-19T04:24:29;18.32;77.99
74178;DHT22;62540;48.456;-4.456;2023-09-19T04:26:55;18.32;77.88
74178;DHT22;62540;48.456;-4.456;2023-09-19T04:29:20;18.20;78.65
74178;DHT22;62540;48.456;-4.456;2023-09-19T04:31:46;18.17;78.46
74178;DHT22;62540;48.456;-4.456;2023-09-19T04:34:12;18.17;78.39
74178;DHT22;62540;48.456;-4.456;2023-09-19T04:36:41;18.16;78.27
74178;DHT22;62540;48.456;-4.456;2023-09-19T04:39:06;18.26;77.87
74178;DHT22;62540;48.456;-4.456;2023-09-19T04:41:32;18.25;78.05
74178;DHT22;62540;48.456;-4.456;2023-09-19T04:43:59;18.26;77.89
74178;DHT22;62540;48.456;-4.456;2023-09-19T04:46:24;18.33;77.73
74178;DHT22;62540;48.456;-4.456;2023-09-19T04:48:50;18.27;78.40
74178;DHT22;62540;48.456;-4.456;2023-09-19T04:51:15;18.23;78.14
74178;DHT22;62540;48.456;-4.456;2023-09-19T04:53:41;18.26;78.06
74178;DHT22;62540;48.456;-4.456;2023-09-19T04:56:07;18.26;78.22
74178;DHT22;62540;48.456;-4.456;2023-09-19T04:58:33;18.23;78.39
74178;DHT22;62540;48.456;-4.456;2023-09-19T05:00:59;18.23;78.30
74178;DHT22;62540;48.456;-4.456;2023-09-19T05:03:24;18.26;78.02
74178;DHT22;62540;48.456;-4.456;2023-09-19T05:05:50;18.23;78.40
74178;DHT22;62540;48.456;-4.456;2023-09-19T05:08:15;18.14;78.60
74178;DHT22;62540;48.456;-4.456;2023-09-19T05:10:41;18.14;78.26
74178;DHT22;62540;48.456;-4.456;2023-09-19T05:13:06;18.22;78.02
74178;DHT22;62540;48.456;-4.456;2023-09-19T05:15:35;18.25;77.88
74178;DHT22;62540;48.456;-4.456;2023-09-19T05:18:01;18.26;77.95
74178;DHT22;62540;48.456;-4.456;2023-09-19T05:20:26;18.29;77.79
74178;DHT22;62540;48.456;-4.456;2023-09-19T05:23:03;18.36;77.45
74178;DHT22;62540;48.456;-4.456;2023-09-19T05:25:35;18.37;77.40
74178;DHT22;62540;48.456;-4.456;2023-09-19T05:28:07;18.40;77.28
74178;DHT22;62540;48.456;-4.456;2023-09-19T05:30:34;18.43;77.16
74178;DHT22;62540;48.456;-4.456;2023-09-19T05:33:02;18.47;76.96
74178;DHT22;62540;48.456;-4.456;2023-09-19T05:35:27;18.41;77.00
74178;DHT22;62540;48.456;-4.456;2023-09-19T05:37:54;18.41;77.06
74178;DHT22;62540;48.456;-4.456;2023-09-19T05:40:20;18.37;77.09
74178;DHT22;62540;48.456;-4.456;2023-09-19T05:42:47;18.33;77.13
74178;DHT22;62540;48.456;-4.456;2023-09-19T05:45:13;18.29;77.17
74178;DHT22;62540;48.456;-4.456;2023-09-19T05:47:42;18.32;77.02
74178;DHT22;62540;48.456;-4.456;2023-09-19T05:50:12;18.22;77.25
74178;DHT22;62540;48.456;-4.456;2023-09-19T05:52:38;18.23;77.25
74178;DHT22;62540;48.456;-4.456;2023-09-19T05:55:07;18.23;77.20
74178;DHT22;62540;48.456;-4.456;2023-09-19T05:57:36;18.20;77.23
74178;DHT22;62540;48.456;-4.456;2023-09-19T06:00:02;18.23;77.05
74178;DHT22;62540;48.456;-4.456;2023-09-19T06:02:34;18.16;76.93
74178;DHT22;62540;48.456;-4.456;2023-09-19T06:04:59;18.14;76.99
74178;DHT22;62540;48.456;-4.456;2023-09-19T06:07:24;18.14;76.86
74178;DHT22;62540;48.456;-4.456;2023-09-19T06:09:52;18.13;76.81
74178;DHT22;62540;48.456;-4.456;2023-09-19T06:12:19;18.09;76.91
74178;DHT22;62540;48.456;-4.456;2023-09-19T06:14:44;18.07;76.75
74178;DHT22;62540;48.456;-4.456;2023-09-19T06:17:10;18.05;76.60
74178;DHT22;62540;48.456;-4.456;2023-09-19T06:19:35;18.00;76.78
74178;DHT22;62540;48.456;-4.456;2023-09-19T06:22:01;18.05;76.67
74178;DHT22;62540;48.456;-4.456;2023-09-19T06:24:27;18.05;76.58
74178;DHT22;62540;48.456;-4.456;2023-09-19T06:26:52;18.07;76.43
74178;DHT22;62540;48.456;-4.456;2023-09-19T06:29:18;18.05;76.42
74178;DHT22;62540;48.456;-4.456;2023-09-19T06:31:46;18.06;76.49
74178;DHT22;62540;48.456;-4.456;2023-09-19T06:34:12;18.10;76.46
74178;DHT22;62540;48.456;-4.456;2023-09-19T06:36:39;18.13;76.43
74178;DHT22;62540;48.456;-4.456;2023-09-19T06:39:06;18.12;76.33
74178;DHT22;62540;48.456;-4.456;2023-09-19T06:41:31;18.20;76.23
74178;DHT22;62540;48.456;-4.456;2023-09-19T06:43:57;18.30;76.12
74178;DHT22;62540;48.456;-4.456;2023-09-19T06:46:23;18.30;76.10
74178;DHT22;62540;48.456;-4.456;2023-09-19T06:48:48;18.34;76.11
74178;DHT22;62540;48.456;-4.456;2023-09-19T06:51:14;18.38;76.19
74178;DHT22;62540;48.456;-4.456;2023-09-19T06:53:41;18.40;76.07
74178;DHT22;62540;48.456;-4.456;2023-09-19T06:56:06;18.48;75.98
74178;DHT22;62540;48.456;-4.456;2023-09-19T06:58:32;18.64;75.76
74178;DHT22;62540;48.456;-4.456;2023-09-19T07:00:57;18.78;75.47
74178;DHT22;62540;48.456;-4.456;2023-09-19T07:03:22;18.85;75.32
74178;DHT22;62540;48.456;-4.456;2023-09-19T07:05:51;18.89;74.98
74178;DHT22;62540;48.456;-4.456;2023-09-19T07:08:18;19.01;75.12
74178;DHT22;62540;48.456;-4.456;2023-09-19T07:10:44;19.27;74.71
74178;DHT22;62540;48.456;-4.456;2023-09-19T07:13:13;19.67;74.26
74178;DHT22;62540;48.456;-4.456;2023-09-19T07:15:40;19.94;72.61
74178;DHT22;62540;48.456;-4.456;2023-09-19T07:18:11;20.01;72.05
74178;DHT22;62540;48.456;-4.456;2023-09-19T07:20:37;20.10;72.69
74178;DHT22;62540;48.456;-4.456;2023-09-19T07:23:03;20.07;71.60
74178;DHT22;62540;48.456;-4.456;2023-09-19T07:25:29;20.07;72.41
74178;DHT22;62540;48.456;-4.456;2023-09-19T07:27:55;20.01;72.38
74178;DHT22;62540;48.456;-4.456;2023-09-19T07:30:21;20.21;72.21
74178;DHT22;62540;48.456;-4.456;2023-09-19T07:32:47;20.53;71.61
74178;DHT22;62540;48.456;-4.456;2023-09-19T07:35:13;20.89;71.25
74178;DHT22;62540;48.456;-4.456;2023-09-19T07:37:38;21.24;70.69
74178;DHT22;62540;48.456;-4.456;2023-09-19T07:40:05;21.63;70.21
74178;DHT22;62540;48.456;-4.456;2023-09-19T07:42:37;22.05;67.78
74178;DHT22;62540;48.456;-4.456;2023-09-19T07:45:06;22.18;66.87
74178;DHT22;62540;48.456;-4.456;2023-09-19T07:47:33;22.27;67.75
74178;DHT22;62540;48.456;-4.456;2023-09-19T07:49:59;22.67;68.05
74178;DHT22;62540;48.456;-4.456;2023-09-19T07:52:28;22.87;66.55
74178;DHT22;62540;48.456;-4.456;2023-09-19T07:54:53;23.01;66.61
74178;DHT22;62540;48.456;-4.456;2023-09-19T07:57:19;22.98;66.54
74178;DHT22;62540;48.456;-4.456;2023-09-19T07:59:45;22.88;66.27
74178;DHT22;62540;48.456;-4.456;2023-09-19T08:02:11;22.79;64.32
74178;DHT22;62540;48.456;-4.456;2023-09-19T08:04:42;22.72;66.30
74178;DHT22;62540;48.456;-4.456;2023-09-19T08:07:08;22.63;65.72
74178;DHT22;62540;48.456;-4.456;2023-09-19T08:09:34;22.60;66.93
74178;DHT22;62540;48.456;-4.456;2023-09-19T08:11:59;22.63;66.48
74178;DHT22;62540;48.456;-4.456;2023-09-19T08:14:28;22.63;66.73
74178;DHT22;62540;48.456;-4.456;2023-09-19T08:16:57;22.58;66.53
74178;DHT22;62540;48.456;-4.456;2023-09-19T08:19:23;22.72;67.51
74178;DHT22;62540;48.456;-4.456;2023-09-19T08:21:55;22.75;66.25
74178;DHT22;62540;48.456;-4.456;2023-09-19T08:24:20;22.82;67.06
74178;DHT22;62540;48.456;-4.456;2023-09-19T08:26:46;22.81;66.13
74178;DHT22;62540;48.456;-4.456;2023-09-19T08:29:11;22.78;66.38
74178;DHT22;62540;48.456;-4.456;2023-09-19T08:31:38;22.68;66.08
74178;DHT22;62540;48.456;-4.456;2023-09-19T08:34:03;22.51;66.53
74178;DHT22;62540;48.456;-4.456;2023-09-19T08:36:29;22.54;66.83
74178;DHT22;62540;48.456;-4.456;2023-09-19T08:38:56;22.55;66.59
74178;DHT22;62540;48.456;-4.456;2023-09-19T08:41:21;22.48;66.37
74178;DHT22;62540;48.456;-4.456;2023-09-19T08:43:46;22.26;66.45
74178;DHT22;62540;48.456;-4.456;2023-09-19T08:46:15;22.17;67.00
74178;DHT22;62540;48.456;-4.456;2023-09-19T08:49:08;22.10;66.46
74178;DHT22;62540;48.456;-4.456;2023-09-19T08:51:43;21.97;66.82
74178;DHT22;62540;48.456;-4.456;2023-09-19T08:56:45;21.65;67.59
74178;DHT22;62540;48.456;-4.456;2023-09-19T08:59:12;21.59;67.83
74178;DHT22;62540;48.456;-4.456;2023-09-19T09:01:39;21.51;68.13
74178;DHT22;62540;48.456;-4.456;2023-09-19T09:04:09;21.37;67.95
74178;DHT22;62540;48.456;-4.456;2023-09-19T09:06:35;21.28;68.30
74178;DHT22;62540;48.456;-4.456;2023-09-19T09:09:02;21.27;68.50
74178;DHT22;62540;48.456;-4.456;2023-09-19T09:11:28;21.18;68.77
74178;DHT22;62540;48.456;-4.456;2023-09-19T09:13:54;21.12;69.04
74178;DHT22;62540;48.456;-4.456;2023-09-19T09:16:19;21.07;69.20
74178;DHT22;62540;48.456;-4.456;2023-09-19T09:18:45;20.97;69.35
74178;DHT22;62540;48.456;-4.456;2023-09-19T09:21:12;20.96;69.35
74178;DHT22;62540;48.456;-4.456;2023-09-19T09:23:38;20.90;69.55
74178;DHT22;62540;48.456;-4.456;2023-09-19T09:26:04;20.93;69.54
74178;DHT22;62540;48.456;-4.456;2023-09-19T09:28:32;20.90;69.54
74178;DHT22;62540;48.456;-4.456;2023-09-19T09:30:59;20.99;69.51
74178;DHT22;62540;48.456;-4.456;2023-09-19T09:33:25;20.91;69.60
74178;DHT22;62540;48.456;-4.456;2023-09-19T09:36:00;20.97;69.65
74178;DHT22;62540;48.456;-4.456;2023-09-19T09:38:29;20.90;70.17
74178;DHT22;62540;48.456;-4.456;2023-09-19T09:40:58;20.87;70.14
74178;DHT22;62540;48.456;-4.456;2023-09-19T09:43:34;20.99;70.17
74178;DHT22;62540;48.456;-4.456;2023-09-19T09:48:48;21.34;69.67
74178;DHT22;62540;48.456;-4.456;2023-09-19T09:52:04;21.51;69.56
74178;DHT22;62540;48.456;-4.456;2023-09-19T09:54:33;21.68;69.17
74178;DHT22;62540;48.456;-4.456;2023-09-19T09:57:09;21.82;68.79
74178;DHT22;62540;48.456;-4.456;2023-09-19T10:02:35;22.10;68.31
74178;DHT22;62540;48.456;-4.456;2023-09-19T10:05:18;22.18;67.73
74178;DHT22;62540;48.456;-4.456;2023-09-19T10:07:53;22.17;67.92
74178;DHT22;62540;48.456;-4.456;2023-09-19T10:10:40;22.20;67.95
74178;DHT22;62540;48.456;-4.456;2023-09-19T10:13:07;22.32;68.07
74178;DHT22;62540;48.456;-4.456;2023-09-19T10:15:33;22.39;67.44
74178;DHT22;62540;48.456;-4.456;2023-09-19T10:18:04;22.43;67.46
74178;DHT22;62540;48.456;-4.456;2023-09-19T10:20:33;22.44;67.36
74178;DHT22;62540;48.456;-4.456;2023-09-19T10:23:10;22.33;67.19
74178;DHT22;62540;48.456;-4.456;2023-09-19T10:25:41;22.44;67.35
74178;DHT22;62540;48.456;-4.456;2023-09-19T10:28:08;22.54;67.39
74178;DHT22;62540;48.456;-4.456;2023-09-19T10:30:41;22.57;66.78
74178;DHT22;62540;48.456;-4.456;2023-09-19T10:33:11;22.47;66.79
74178;DHT22;62540;48.456;-4.456;2023-09-19T10:35:45;22.44;66.37
74178;DHT22;62540;48.456;-4.456;2023-09-19T10:38:17;22.37;66.66
74178;DHT22;62540;48.456;-4.456;2023-09-19T10:40:44;22.44;66.96
74178;DHT22;62540;48.456;-4.456;2023-09-19T10:43:15;22.54;67.03
74178;DHT22;62540;48.456;-4.456;2023-09-19T10:45:44;22.54;66.54
74178;DHT22;62540;48.456;-4.456;2023-09-19T10:48:11;22.44;66.28
74178;DHT22;62540;48.456;-4.456;2023-09-19T10:50:45;22.47;66.58
74178;DHT22;62540;48.456;-4.456;2023-09-19T10:53:12;22.45;66.40
74178;DHT22;62540;48.456;-4.456;2023-09-19T10:55:39;22.47;66.84
74178;DHT22;62540;48.456;-4.456;2023-09-19T10:58:05;22.41;66.22
74178;DHT22;62540;48.456;-4.456;2023-09-19T11:03:22;22.33;66.74
74178;DHT22;62540;48.456;-4.456;2023-09-19T11:08:46;22.33;66.88
74178;DHT22;62540;48.456;-4.456;2023-09-19T11:30:41;22.81;66.35
74178;DHT22;62540;48.456;-4.456;2023-09-19T11:36:05;22.84;65.81
74178;DHT22;62540;48.456;-4.456;2023-09-19T11:46:17;22.94;65.25
74178;DHT22;62540;48.456;-4.456;2023-09-19T11:48:48;22.96;65.68
74178;DHT22;62540;48.456;-4.456;2023-09-19T11:51:24;23.08;65.44
74178;DHT22;62540;48.456;-4.456;2023-09-19T11:53:57;23.26;65.54
74178;DHT22;62540;48.456;-4.456;2023-09-19T11:56:26;23.50;65.65
74178;DHT22;62540;48.456;-4.456;2023-09-19T11:58:57;23.60;65.08
74178;DHT22;62540;48.456;-4.456;2023-09-19T12:03:55;23.87;63.96
74178;DHT22;62540;48.456;-4.456;2023-09-19T12:06:25;23.88;63.99
74178;DHT22;62540;48.456;-4.456;2023-09-19T12:08:51;23.77;63.36
74178;DHT22;62540;48.456;-4.456;2023-09-19T12:11:19;23.64;63.88
74178;DHT22;62540;48.456;-4.456;2023-09-19T12:13:47;23.49;63.81
74178;DHT22;62540;48.456;-4.456;2023-09-19T12:16:18;23.27;64.43
74178;DHT22;62540;48.456;-4.456;2023-09-19T12:18:47;23.08;64.59
74178;DHT22;62540;48.456;-4.456;2023-09-19T12:21:32;22.87;65.15
74178;DHT22;62540;48.456;-4.456;2023-09-19T12:26:38;22.58;66.31
74178;DHT22;62540;48.456;-4.456;2023-09-19T12:29:11;22.61;66.32
74178;DHT22;62540;48.456;-4.456;2023-09-19T12:31:50;22.61;66.32
74178;DHT22;62540;48.456;-4.456;2023-09-19T12:34:20;22.65;66.41
74178;DHT22;62540;48.456;-4.456;2023-09-19T12:36:46;22.65;66.38
74178;DHT22;62540;48.456;-4.456;2023-09-19T12:39:11;22.63;66.57
74178;DHT22;62540;48.456;-4.456;2023-09-19T12:41:37;22.64;66.71
74178;DHT22;62540;48.456;-4.456;2023-09-19T12:44:04;22.69;66.58
74178;DHT22;62540;48.456;-4.456;2023-09-19T12:46:34;22.61;66.62
74178;DHT22;62540;48.456;-4.456;2023-09-19T12:49:18;22.47;66.76
74178;DHT22;62540;48.456;-4.456;2023-09-19T12:51:45;22.47;66.87
74178;DHT22;62540;48.456;-4.456;2023-09-19T12:54:10;22.43;66.93
74178;DHT22;62540;48.456;-4.456;2023-09-19T12:56:43;22.34;67.49
74178;DHT22;62540;48.456;-4.456;2023-09-19T12:59:13;22.27;67.76
74178;DHT22;62540;48.456;-4.456;2023-09-19T13:01:40;22.09;68.25
74178;DHT22;62540;48.456;-4.456;2023-09-19T13:04:21;22.06;68.39
74178;DHT22;62540;48.456;-4.456;2023-09-19T13:06:54;22.12;68.24
74178;DHT22;62540;48.456;-4.456;2023-09-19T13:09:22;22.10;68.26
74178;DHT22;62540;48.456;-4.456;2023-09-19T13:11:59;22.12;68.18
74178;DHT22;62540;48.456;-4.456;2023-09-19T13:14:28;22.16;68.58
74178;DHT22;62540;48.456;-4.456;2023-09-19T13:17:07;22.09;68.51
74178;DHT22;62540;48.456;-4.456;2023-09-19T13:19:50;22.18;68.56
74178;DHT22;62540;48.456;-4.456;2023-09-19T13:22:39;22.18;69.00
74178;DHT22;62540;48.456;-4.456;2023-09-19T13:25:07;22.24;69.14
74178;DHT22;62540;48.456;-4.456;2023-09-19T13:27:33;22.39;68.87
74178;DHT22;62540;48.456;-4.456;2023-09-19T13:29:59;22.39;68.55
74178;DHT22;62540;48.456;-4.456;2023-09-19T13:32:25;22.47;68.53
74178;DHT22;62540;48.456;-4.456;2023-09-19T13:34:50;22.57;68.27
74178;DHT22;62540;48.456;-4.456;2023-09-19T13:37:16;22.54;68.24
74178;DHT22;62540;48.456;-4.456;2023-09-19T13:39:43;22.68;68.19
74178;DHT22;62540;48.456;-4.456;2023-09-19T13:42:13;22.79;67.88
74178;DHT22;62540;48.456;-4.456;2023-09-19T13:44:38;22.72;67.56
74178;DHT22;62540;48.456;-4.456;2023-09-19T13:47:04;22.72;67.77
74178;DHT22;62540;48.456;-4.456;2023-09-19T13:49:35;22.69;68.01
74178;DHT22;62540;48.456;-4.456;2023-09-19T13:52:01;22.68;68.05
74178;DHT22;62540;48.456;-4.456;2023-09-19T13:54:28;22.60;68.13
74178;DHT22;62540;48.456;-4.456;2023-09-19T13:56:53;22.57;68.27
74178;DHT22;62540;48.456;-4.456;2023-09-19T13:59:19;22.43;68.80
74178;DHT22;62540;48.456;-4.456;2023-09-19T14:01:46;22.27;69.07
74178;DHT22;62540;48.456;-4.456;2023-09-19T14:04:11;22.13;69.47
74178;DHT22;62540;48.456;-4.456;2023-09-19T14:06:37;22.17;69.34
74178;DHT22;62540;48.456;-4.456;2023-09-19T14:09:03;22.18;69.12
74178;DHT22;62540;48.456;-4.456;2023-09-19T14:11:29;22.09;69.47
74178;DHT22;62540;48.456;-4.456;2023-09-19T14:13:54;22.02;69.46
74178;DHT22;62540;48.456;-4.456;2023-09-19T14:16:19;21.93;70.22
74178;DHT22;62540;48.456;-4.456;2023-09-19T14:18:47;21.95;69.95
74178;DHT22;62540;48.456;-4.456;2023-09-19T14:21:13;22.00;70.34
74178;DHT22;62540;48.456;-4.456;2023-09-19T14:23:39;21.97;70.97
74178;DHT22;62540;48.456;-4.456;2023-09-19T14:26:06;21.90;70.46
74178;DHT22;62540;48.456;-4.456;2023-09-19T14:28:32;21.74;71.42
74178;DHT22;62540;48.456;-4.456;2023-09-19T14:31:05;21.75;71.21
74178;DHT22;62540;48.456;-4.456;2023-09-19T14:33:31;21.90;70.83
74178;DHT22;62540;48.456;-4.456;2023-09-19T14:35:57;21.95;70.72
74178;DHT22;62540;48.456;-4.456;2023-09-19T14:38:22;21.92;70.46
74178;DHT22;62540;48.456;-4.456;2023-09-19T14:40:47;21.81;71.07
74178;DHT22;62540;48.456;-4.456;2023-09-19T14:43:15;21.81;70.95
74178;DHT22;62540;48.456;-4.456;2023-09-19T14:45:40;21.74;71.17
74178;DHT22;62540;48.456;-4.456;2023-09-19T14:48:06;21.71;71.39
74178;DHT22;62540;48.456;-4.456;2023-09-19T14:50:32;21.66;71.77
74178;DHT22;62540;48.456;-4.456;2023-09-19T14:52:58;21.59;72.59
74178;DHT22;62540;48.456;-4.456;2023-09-19T14:55:27;21.42;73.46
74178;DHT22;62540;48.456;-4.456;2023-09-19T14:57:54;21.41;72.65
74178;DHT22;62540;48.456;-4.456;2023-09-19T15:00:21;21.35;73.85
74178;DHT22;62540;48.456;-4.456;2023-09-19T15:02:48;21.26;73.77
74178;DHT22;62540;48.456;-4.456;2023-09-19T15:05:16;21.21;75.31
74178;DHT22;62540;48.456;-4.456;2023-09-19T15:07:41;21.26;74.25
74178;DHT22;62540;48.456;-4.456;2023-09-19T15:10:07;21.28;74.71
74178;DHT22;62540;48.456;-4.456;2023-09-19T15:12:35;21.30;74.16
74178;DHT22;62540;48.456;-4.456;2023-09-19T15:15:03;21.21;74.53
74178;DHT22;62540;48.456;-4.456;2023-09-19T15:17:30;21.24;74.02
74178;DHT22;62540;48.456;-4.456;2023-09-19T15:19:56;21.15;75.93
74178;DHT22;62540;48.456;-4.456;2023-09-19T15:22:21;21.14;74.72
74178;DHT22;62540;48.456;-4.456;2023-09-19T15:24:47;21.14;74.98
74178;DHT22;62540;48.456;-4.456;2023-09-19T15:27:13;21.07;75.53
74178;DHT22;62540;48.456;-4.456;2023-09-19T15:29:38;21.00;75.55
74178;DHT22;62540;48.456;-4.456;2023-09-19T15:32:04;20.97;75.65
74178;DHT22;62540;48.456;-4.456;2023-09-19T15:34:29;20.81;75.81
74178;DHT22;62540;48.456;-4.456;2023-09-19T15:36:56;20.79;76.15
74178;DHT22;62540;48.456;-4.456;2023-09-19T15:39:21;20.81;75.73
74178;DHT22;62540;48.456;-4.456;2023-09-19T15:41:48;20.90;75.27
74178;DHT22;62540;48.456;-4.456;2023-09-19T15:44:17;20.87;75.92
74178;DHT22;62540;48.456;-4.456;2023-09-19T15:46:44;20.86;75.61
74178;DHT22;62540;48.456;-4.456;2023-09-19T15:49:10;20.75;75.58
74178;DHT22;62540;48.456;-4.456;2023-09-19T15:51:36;20.69;75.89
74178;DHT22;62540;48.456;-4.456;2023-09-19T15:54:01;20.66;75.95
74178;DHT22;62540;48.456;-4.456;2023-09-19T15:56:33;20.59;76.06
74178;DHT22;62540;48.456;-4.456;2023-09-19T15:59:00;20.57;75.89
74178;DHT22;62540;48.456;-4.456;2023-09-19T16:01:25;20.60;76.00
74178;DHT22;62540;48.456;-4.456;2023-09-19T16:03:53;20.63;76.27
74178;DHT22;62540;48.456;-4.456;2023-09-19T16:06:23;20.69;75.80
74178;DHT22;62540;48.456;-4.456;2023-09-19T16:08:51;20.66;76.14
74178;DHT22;62540;48.456;-4.456;2023-09-19T16:11:18;20.77;76.11
74178;DHT22;62540;48.456;-4.456;2023-09-19T16:13:45;20.87;76.98
74178;DHT22;62540;48.456;-4.456;2023-09-19T16:16:12;20.90;76.60
74178;DHT22;62540;48.456;-4.456;2023-09-19T16:18:48;20.96;76.22
74178;DHT22;62540;48.456;-4.456;2023-09-19T16:21:14;20.90;76.62
74178;DHT22;62540;48.456;-4.456;2023-09-19T16:23:39;20.90;76.07
74178;DHT22;62540;48.456;-4.456;2023-09-19T16:26:07;20.84;76.52
74178;DHT22;62540;48.456;-4.456;2023-09-19T16:28:35;20.72;76.69